Time;durP1;ratioP1;P1;durP2;ratioP2;P2;SDS_P1;SDS_P2;PMS_P1;PMS_P2;Temp;Humidity;BMP_temperature;BMP_pressure;BME280_temperature;BME280_humidity;BME280_pressure;Samples;Min_cycle;Max_cycle;Signal;HPM_P1;HPM_P2
2022/01/28 00:00:35;;;;;;;6.10;1.85;;;22.10;39.40;;;;;;5068844;28;20036;-59
2022/01/28 00:03:06;;;;;;;2.63;1.75;;;22.10;39.40;;;;;;5062241;28;20079;-59
2022/01/28 00:05:33;;;;;;;;;;;22.10;39.50;;;;;;5072577;28;20395;-59
2022/01/28 00:07:58;;;;;;;3.65;1.88;;;22.10;39.30;;;;;;5070135;28;19920;-59
2022/01/28 00:10:25;;;;;;;4.68;2.03;;;22.00;39.50;;;;;;5069367;28;20051;-59
2022/01/28 00:37:26;;;;;;;4.95;2.25;;;21.80;39.30;;;;;;5070113;28;20500;-59
2022/01/28 00:39:51;;;;;;;5.85;2.65;;;21.80;39.30;;;;;;5067824;28;20480;-59
2022/01/28 00:42:17;;;;;;;5.85;2.50;;;21.70;39.60;;;;;;5072069;28;20040;-59
2022/01/28 00:44:43;;;;;;;4.45;2.33;;;21.70;39.40;;;;;;5069462;28;20775;-59
2022/01/28 00:47:09;;;;;;;4.57;2.25;;;21.70;39.40;;;;;;5071708;28;20037;-59
2022/01/28 00:49:34;;;;;;;5.93;2.47;;;21.70;39.40;;;;;;5067909;28;20032;-59
2022/01/28 00:52:00;;;;;;;10.32;2.70;;;21.60;39.30;;;;;;5070275;28;20114;-59
2022/01/28 00:54:26;;;;;;;4.82;1.92;;;21.60;39.40;;;;;;5069565;28;20074;-59
2022/01/28 00:56:51;;;;;;;6.43;2.05;;;21.60;39.40;;;;;;5069825;28;20399;-60
2022/01/28 00:59:17;;;;;;;5.35;2.25;;;21.60;39.40;;;;;;5067095;28;20547;-59
2022/01/28 01:01:43;;;;;;;5.93;2.25;;;21.60;39.50;;;;;;5069329;28;20052;-59
2022/01/28 01:04:08;;;;;;;6.45;2.25;;;21.50;39.30;;;;;;5068295;28;20040;-59
2022/01/28 01:06:34;;;;;;;8.30;1.95;;;21.50;39.30;;;;;;5070815;28;20032;-59
2022/01/28 01:09:00;;;;;;;7.38;2.58;;;21.50;39.30;;;;;;5067770;28;20477;-59
2022/01/28 01:11:27;;;;;;;7.97;2.60;;;21.50;39.40;;;;;;5068209;28;20045;-59
2022/01/28 01:13:54;;;;;;;5.40;1.95;;;21.50;39.40;;;;;;5068377;28;20117;-59
2022/01/28 01:16:30;;;;;;;4.60;1.88;;;21.50;39.50;;;;;;5067032;28;20128;-59
2022/01/28 01:19:18;;;;;;;6.63;2.42;;;21.50;39.40;;;;;;5069190;28;20076;-59
2022/01/28 01:21:44;;;;;;;6.38;2.17;;;21.50;39.40;;;;;;5056006;28;20134;-59
2022/01/28 01:24:19;;;;;;;8.27;2.47;;;21.40;39.40;;;;;;5067497;28;20068;-59
2022/01/28 01:26:45;;;;;;;5.68;2.08;;;21.40;39.40;;;;;;5062719;28;20052;-59
2022/01/28 01:29:13;;;;;;;3.67;2.05;;;21.40;39.50;;;;;;5068133;28;20083;-59
2022/01/28 01:31:42;;;;;;;7.95;1.92;;;21.40;39.50;;;;;;5069625;28;20728;-59
2022/01/28 01:34:14;;;;;;;6.53;2.50;;;21.40;39.40;;;;;;5064702;28;20044;-59
2022/01/28 01:36:40;;;;;;;6.78;2.05;;;21.30;39.50;;;;;;5067092;28;20174;-60
2022/01/28 01:39:08;;;;;;;4.05;1.70;;;21.30;39.60;;;;;;5070372;28;20036;-59
2022/01/28 01:41:39;;;;;;;4.95;1.88;;;21.30;39.60;;;;;;5066778;28;20055;-57
2022/01/28 01:44:20;;;;;;;3.50;1.63;;;21.30;39.80;;;;;;5061795;28;20047;-57
2022/01/28 01:47:15;;;;;;;5.70;2.13;;;21.30;40.10;;;;;;5058974;28;20044;-58
2022/01/28 01:52:18;;;;;;;4.50;1.98;;;21.30;40.40;;;;;;5067419;28;20082;-59
2022/01/28 01:54:44;;;;;;;5.38;1.88;;;21.20;40.50;;;;;;5068979;28;20867;-59
2022/01/28 01:57:12;;;;;;;3.88;2.00;;;21.20;40.60;;;;;;5053263;28;20503;-58
2022/01/28 01:59:40;;;;;;;4.40;1.88;;;21.20;40.60;;;;;;5066769;28;20114;-58
2022/01/28 02:02:07;;;;;;;5.63;1.88;;;21.20;40.70;;;;;;5066276;28;20151;-59
2022/01/28 02:04:32;;;;;;;3.95;1.70;;;21.20;40.80;;;;;;5069366;28;20036;-58
2022/01/28 02:06:59;;;;;;;4.68;1.50;;;21.20;40.80;;;;;;5066830;28;20109;-58
2022/01/28 02:09:25;;;;;;;4.25;1.88;;;21.20;40.80;;;;;;5069087;28;20469;-58
2022/01/28 02:11:51;;;;;;;6.30;2.10;;;21.20;40.90;;;;;;5066461;28;20047;-59
2022/01/28 02:14:16;;;;;;;4.55;1.73;;;21.10;40.90;;;;;;5069998;28;20054;-58
2022/01/28 02:16:42;;;;;;;4.38;1.67;;;21.20;41.00;;;;;;5067363;28;20047;-58
2022/01/28 02:19:08;;;;;;;4.57;1.70;;;21.10;40.90;;;;;;5067872;28;20047;-59
2022/01/28 02:21:39;;;;;;;6.15;1.70;;;21.10;40.80;;;;;;5066413;28;20104;-59
2022/01/28 02:24:06;;;;;;;5.38;1.98;;;21.10;40.90;;;;;;5063155;28;20465;-58
2022/01/28 02:26:32;;;;;;;3.72;1.40;;;21.10;41.00;;;;;;5066003;28;20036;-59
2022/01/28 02:29:06;;;;;;;4.47;1.80;;;21.10;41.20;;;;;;5070147;28;20040;-58
2022/01/28 02:31:33;;;;;;;5.20;1.92;;;21.00;41.10;;;;;;5066117;28;20041;-58
2022/01/28 02:33:59;;;;;;;5.30;2.00;;;21.00;41.00;;;;;;5070044;28;20135;-59
2022/01/28 02:36:26;;;;;;;5.53;2.10;;;21.00;41.00;;;;;;5070904;28;20111;-58
2022/01/28 02:38:52;;;;;;;5.20;2.03;;;21.00;41.00;;;;;;5062573;28;20076;-58
2022/01/28 02:41:18;;;;;;;5.90;1.85;;;21.00;41.00;;;;;;5070597;28;20464;-59
2022/01/28 02:46:30;;;;;;;5.75;1.77;;;21.00;41.00;;;;;;5071031;28;20468;-59
2022/01/28 02:49:06;;;;;;;6.60;2.13;;;21.00;41.00;;;;;;5073684;28;20403;-59
2022/01/28 02:51:33;;;;;;;4.95;1.88;;;21.00;41.00;;;;;;5058950;28;20037;-59
2022/01/28 02:54:00;;;;;;;5.20;1.48;;;21.00;41.10;;;;;;5073093;28;20032;-58
2022/01/28 02:56:36;;;;;;;5.30;1.92;;;20.90;41.00;;;;;;5064248;28;20102;-58
2022/01/28 02:59:02;;;;;;;4.50;1.77;;;20.90;40.90;;;;;;5072415;28;20079;-58
2022/01/28 03:01:28;;;;;;;3.67;1.58;;;20.90;40.90;;;;;;5066060;28;20032;-59
2022/01/28 03:03:56;;;;;;;5.20;1.83;;;20.90;41.00;;;;;;5068699;28;20042;-59
2022/01/28 03:06:22;;;;;;;6.57;2.22;;;20.90;41.00;;;;;;5071606;28;20125;-58
2022/01/28 03:08:51;;;;;;;3.47;1.63;;;20.90;40.90;;;;;;5068033;28;20048;-59
2022/01/28 03:16:28;;;;;;;3.53;1.83;;;20.90;41.00;;;;;;5072945;28;20675;-58
2022/01/28 03:19:13;;;;;;;4.82;1.80;;;20.80;40.90;;;;;;5070928;28;20075;-59
2022/01/28 03:21:42;;;;;;;5.30;1.70;;;20.80;41.00;;;;;;5072797;28;20047;-58
2022/01/28 03:24:10;;;;;;;6.05;1.98;;;20.80;40.90;;;;;;5070320;28;20117;-58
2022/01/28 03:26:35;;;;;;;4.45;1.65;;;20.80;40.80;;;;;;5072791;28;20075;-59
2022/01/28 03:29:02;;;;;;;4.03;1.70;;;20.80;40.90;;;;;;5070442;28;20119;-58
2022/01/28 03:31:27;;;;;;;7.00;1.75;;;20.70;40.80;;;;;;5070829;28;20033;-59
2022/01/28 03:33:53;;;;;;;6.07;2.20;;;20.80;40.90;;;;;;5070046;28;20054;-59
2022/01/28 03:36:18;;;;;;;3.97;1.58;;;20.80;40.80;;;;;;5069409;28;20751;-58
2022/01/28 03:38:47;;;;;;;3.50;1.67;;;20.70;40.80;;;;;;5070254;28;20049;-59
2022/01/28 03:41:16;;;;;;;4.40;1.60;;;20.70;40.80;;;;;;5072711;28;20044;-59
2022/01/28 03:43:47;;;;;;;5.30;1.65;;;20.70;40.70;;;;;;5072276;28;20495;-59
2022/01/28 03:46:13;;;;;;;5.10;1.50;;;20.70;40.70;;;;;;5071634;28;20461;-59
2022/01/28 03:48:39;;;;;;;7.40;1.70;;;20.70;40.70;;;;;;5060125;28;20329;-59
2022/01/28 03:51:05;;;;;;;5.25;1.67;;;20.70;40.70;;;;;;5070967;28;20413;-59
2022/01/28 03:53:31;;;;;;;4.05;1.73;;;20.70;40.80;;;;;;5070987;28;20155;-59
2022/01/28 03:55:58;;;;;;;4.25;1.40;;;20.70;40.80;;;;;;5070892;28;20131;-59
2022/01/28 03:58:24;;;;;;;5.82;1.52;;;20.70;40.80;;;;;;5073081;28;20116;-59
2022/01/28 04:00:51;;;;;;;4.55;1.90;;;20.60;40.70;;;;;;5068194;28;20071;-59
2022/01/28 04:11:33;;;;;;;4.10;1.60;;;20.60;40.60;;;;;;5066734;28;20059;-59
2022/01/28 04:14:16;;;;;;;5.00;1.65;;;20.50;40.60;;;;;;5073336;28;20033;-59
2022/01/28 04:19:26;;;;;;;4.85;1.42;;;20.60;40.60;;;;;;5070140;28;20246;-59
2022/01/28 04:21:52;;;;;;;5.18;1.30;;;20.50;40.50;;;;;;5069971;28;20127;-59
2022/01/28 04:24:17;;;;;;;3.97;1.40;;;20.50;40.50;;;;;;5069661;28;20048;-59
2022/01/28 04:26:43;;;;;;;4.40;1.58;;;20.50;40.50;;;;;;5068264;28;20047;-59
2022/01/28 04:29:11;;;;;;;3.38;1.25;;;20.50;40.50;;;;;;5068623;28;20032;-59
2022/01/28 04:31:41;;;;;;;4.18;1.50;;;20.50;40.50;;;;;;5069909;28;20412;-59
2022/01/28 04:34:07;;;;;;;4.88;1.50;;;20.50;40.60;;;;;;5069345;28;20123;-61
2022/01/28 04:36:37;;;;;;;5.82;1.98;;;20.50;40.50;;;;;;5069543;28;20130;-59
2022/01/28 04:39:18;;;;;;;5.80;1.90;;;20.50;40.60;;;;;;5056602;28;20079;-59
2022/01/28 04:44:17;;;;;;;4.80;1.67;;;20.50;40.60;;;;;;5064559;28;20046;-58
2022/01/28 04:46:54;;;;;;;4.72;1.77;;;20.40;40.60;;;;;;5076846;28;20242;-59
2022/01/28 04:49:29;;;;;;;4.47;1.50;;;20.40;40.70;;;;;;5066606;28;20048;-59
2022/01/28 04:52:30;;;;;;;5.18;1.70;;;20.40;40.60;;;;;;5071278;28;20058;-59
2022/01/28 04:57:38;;;;;;;4.78;1.80;;;20.40;40.60;;;;;;5069186;28;20044;-58
2022/01/28 05:05:49;;;;;;;5.15;1.65;;;20.40;40.50;;;;;;5069789;28;20473;-59
2022/01/28 05:08:28;;;;;;;4.32;1.75;;;20.40;40.50;;;;;;5064763;28;20402;-58
2022/01/28 05:11:30;;;;;;;5.05;1.33;;;20.30;40.40;;;;;;5068784;28;20052;-59
2022/01/28 05:16:41;;;;;;;4.68;1.45;;;20.30;40.40;;;;;;5070653;28;20046;-58
2022/01/28 05:27:00;;;;;;;4.20;1.77;;;20.30;40.50;;;;;;5055113;28;20044;-59
2022/01/28 05:29:26;;;;;;;4.35;1.52;;;20.30;40.40;;;;;;5067316;28;20036;-59
2022/01/28 05:31:52;;;;;;;6.93;1.88;;;20.30;40.40;;;;;;5068357;28;20033;-59
2022/01/28 05:34:18;;;;;;;3.75;1.48;;;20.30;40.40;;;;;;5058057;28;20389;-59
2022/01/28 05:36:44;;;;;;;4.70;1.58;;;20.30;40.40;;;;;;5063309;28;20029;-59
2022/01/28 05:39:10;;;;;;;4.45;1.90;;;20.30;40.40;;;;;;5067567;28;20457;-59
2022/01/28 05:41:35;;;;;;;4.43;1.70;;;20.20;40.40;;;;;;5070661;28;20075;-59
2022/01/28 05:44:02;;;;;;;4.82;1.77;;;20.20;40.40;;;;;;5067592;28;20040;-58
2022/01/28 05:46:29;;;;;;;6.45;1.83;;;20.20;40.40;;;;;;5068308;28;20082;-59
2022/01/28 05:48:58;;;;;;;5.82;1.55;;;20.20;40.40;;;;;;5064792;28;20032;-59
2022/01/28 05:51:25;;;;;;;6.32;2.25;;;20.20;40.50;;;;;;5068545;28;20043;-58
2022/01/28 05:53:51;;;;;;;6.65;2.17;;;20.20;40.50;;;;;;5068297;28;20388;-58
2022/01/28 05:56:16;;;;;;;4.72;1.70;;;20.20;40.40;;;;;;5067292;28;20040;-58
2022/01/28 05:58:42;;;;;;;6.57;1.92;;;20.20;40.60;;;;;;5066588;28;20036;-58
2022/01/28 06:01:07;;;;;;;4.90;1.65;;;20.20;40.60;;;;;;5068362;28;20048;-59
2022/01/28 06:03:33;;;;;;;5.20;1.67;;;20.20;40.60;;;;;;5069726;28;20032;-58
2022/01/28 06:05:59;;;;;;;3.95;1.42;;;20.20;40.60;;;;;;5065262;28;20069;-59
2022/01/28 06:08:24;;;;;;;4.50;1.98;;;20.20;40.70;;;;;;5070367;28;20043;-59
2022/01/28 06:10:50;;;;;;;6.20;1.95;;;20.20;40.70;;;;;;5060501;28;20664;-59
2022/01/28 06:13:16;;;;;;;5.22;1.85;;;20.20;40.80;;;;;;5071118;28;20564;-60
2022/01/28 06:15:42;;;;;;;3.55;1.52;;;20.20;41.00;;;;;;5073837;28;20045;-59
2022/01/28 06:18:11;;;;;;;7.07;1.52;;;20.20;41.20;;;;;;5070119;28;20416;-59
2022/01/28 06:20:37;;;;;;;5.88;2.40;;;20.20;41.10;;;;;;5075639;28;20067;-59
2022/01/28 06:23:04;;;;;;;7.05;1.90;;;20.20;41.10;;;;;;5069764;28;20043;-60
2022/01/28 06:25:30;;;;;;;4.38;1.80;;;20.20;41.30;;;;;;5072834;28;20047;-58
2022/01/28 06:27:55;;;;;;;4.45;2.08;;;20.20;41.30;;;;;;5052654;28;20049;-59
2022/01/28 06:30:22;;;;;;;5.65;1.63;;;20.20;41.40;;;;;;5074033;28;20104;-59
2022/01/28 06:32:49;;;;;;;3.90;1.77;;;20.20;41.50;;;;;;5069611;28;20448;-59
2022/01/28 06:35:15;;;;;;;8.00;2.25;;;20.30;42.00;;;;;;5071330;28;20089;-59
2022/01/28 06:37:42;;;;;;;9.98;2.20;;;20.20;41.90;;;;;;5058831;28;20048;-59
2022/01/28 06:40:11;;;;;;;5.47;2.35;;;20.30;42.10;;;;;;5071110;28;20037;-59
2022/01/28 06:42:36;;;;;;;5.50;2.00;;;20.30;42.10;;;;;;5058194;28;20041;-59
2022/01/28 06:45:03;;;;;;;9.07;2.53;;;20.30;42.40;;;;;;5059459;28;20252;-60
2022/01/28 06:47:29;;;;;;;6.72;2.47;;;20.30;42.60;;;;;;5069625;28;20052;-60
2022/01/28 06:49:55;;;;;;;7.38;2.30;;;20.30;42.50;;;;;;5071068;28;20040;-60
2022/01/28 06:52:21;;;;;;;7.18;2.55;;;20.30;42.50;;;;;;5074209;28;20104;-60
2022/01/28 06:54:46;;;;;;;6.78;2.10;;;20.30;42.60;;;;;;5067352;28;20113;-60
2022/01/28 06:57:12;;;;;;;5.88;2.17;;;20.30;42.60;;;;;;5071136;28;20047;-60
2022/01/28 06:59:37;;;;;;;4.75;1.90;;;20.40;42.60;;;;;;5066155;28;20393;-59
2022/01/28 07:02:03;;;;;;;5.95;2.22;;;20.30;42.60;;;;;;5071074;28;20086;-59
2022/01/28 07:04:29;;;;;;;6.07;1.80;;;20.40;42.70;;;;;;5069161;28;20044;-59
2022/01/28 07:06:54;;;;;;;5.60;2.08;;;20.40;42.70;;;;;;5073173;28;20143;-59
2022/01/28 07:09:20;;;;;;;7.28;2.47;;;20.30;42.60;;;;;;5069245;28;20067;-59
2022/01/28 07:11:45;;;;;;;6.93;2.47;;;20.30;42.60;;;;;;5068502;28;20045;-59
2022/01/28 07:14:11;;;;;;;4.40;2.08;;;20.40;42.40;;;;;;5066457;28;20044;-61
2022/01/28 07:16:36;;;;;;;6.10;2.05;;;20.40;42.20;;;;;;5073285;28;20097;-60
2022/01/28 07:19:06;;;;;;;5.88;2.45;;;20.40;42.10;;;;;;5071405;28;20154;-60
2022/01/28 07:21:32;;;;;;;5.17;1.87;;;20.40;42.00;;;;;;5068520;28;20044;-60
2022/01/28 07:23:58;;;;;;;9.65;2.80;;;20.40;41.90;;;;;;5070675;28;20063;-59
2022/01/28 07:26:23;;;;;;;7.55;2.17;;;20.40;41.80;;;;;;5062739;28;20040;-59
2022/01/28 07:28:49;;;;;;;4.07;1.65;;;20.40;41.80;;;;;;5073475;28;20046;-60
2022/01/28 07:31:17;;;;;;;6.68;2.33;;;20.40;41.70;;;;;;5068949;28;20040;-59
2022/01/28 07:33:43;;;;;;;4.65;1.98;;;20.40;41.60;;;;;;5074210;28;20100;-60
2022/01/28 07:36:09;;;;;;;6.03;2.35;;;20.40;41.50;;;;;;5069486;28;20040;-60
2022/01/28 07:38:34;;;;;;;7.43;2.42;;;20.40;41.40;;;;;;5070558;28;20047;-59
2022/01/28 07:41:01;;;;;;;5.05;1.80;;;20.40;41.30;;;;;;5064300;28;20046;-60
2022/01/28 07:43:27;;;;;;;4.63;2.05;;;20.40;41.30;;;;;;5069502;28;20040;-59
2022/01/28 07:45:53;;;;;;;5.82;2.03;;;20.40;41.30;;;;;;5066974;28;20173;-59
2022/01/28 07:48:19;;;;;;;6.10;2.05;;;20.40;41.20;;;;;;5059901;28;20083;-60
2022/01/28 07:50:45;;;;;;;5.85;2.00;;;20.40;41.10;;;;;;5062157;28;20449;-59
2022/01/28 07:53:15;;;;;;;5.72;2.13;;;20.40;41.00;;;;;;5068563;28;20460;-60
2022/01/28 07:55:41;;;;;;;5.30;2.05;;;20.40;41.00;;;;;;5055215;28;20484;-58
2022/01/28 07:58:06;;;;;;;6.72;2.28;;;20.50;41.00;;;;;;5053005;28;20108;-59
2022/01/28 08:00:32;;;;;;;7.35;2.00;;;20.50;41.00;;;;;;5057349;28;20043;-60
2022/01/28 08:02:57;;;;;;;5.85;2.10;;;20.50;40.90;;;;;;5071811;28;20588;-59
2022/01/28 08:05:23;;;;;;;5.65;2.13;;;20.40;40.80;;;;;;5067229;28;20082;-60
2022/01/28 08:07:48;;;;;;;3.78;1.92;;;20.40;40.70;;;;;;5070179;28;20159;-60
2022/01/28 08:10:16;;;;;;;4.82;1.90;;;20.50;40.70;;;;;;5067865;28;20071;-58
2022/01/28 08:12:52;;;;;;;6.75;2.42;;;20.50;40.70;;;;;;5066934;28;20368;-60
2022/01/28 08:15:19;;;;;;;4.88;2.22;;;20.50;40.60;;;;;;5067929;28;20059;-60
2022/01/28 08:17:46;;;;;;;7.78;2.50;;;20.50;40.60;;;;;;5068189;28;20094;-60
2022/01/28 08:20:13;;;;;;;4.93;1.90;;;20.50;40.60;;;;;;5068368;28;20044;-60
2022/01/28 08:22:46;;;;;;;4.65;1.80;;;20.50;40.60;;;;;;5066873;28;20131;-60
2022/01/28 08:25:13;;;;;;;6.97;2.22;;;20.50;40.60;;;;;;5069562;28;20752;-60
2022/01/28 08:27:38;;;;;;;5.47;2.42;;;20.50;40.60;;;;;;5072150;28;20468;-60
2022/01/28 08:30:04;;;;;;;6.20;2.42;;;20.50;40.50;;;;;;5066035;28;20046;-60
2022/01/28 08:32:30;;;;;;;8.00;2.88;;;20.50;40.70;;;;;;5069222;28;20471;-60
2022/01/28 08:34:55;;;;;;;6.40;2.38;;;20.50;40.70;;;;;;5069929;28;20045;-60
2022/01/28 08:37:21;;;;;;;6.53;2.28;;;20.50;40.80;;;;;;5059759;28;22970;-60
2022/01/28 08:39:48;;;;;;;6.72;2.33;;;20.50;40.90;;;;;;5070590;28;20606;-59
2022/01/28 08:42:16;;;;;;;7.25;2.45;;;20.50;41.00;;;;;;5072032;28;20048;-59
2022/01/28 08:44:42;;;;;;;7.88;2.40;;;20.50;41.20;;;;;;5065224;28;20048;-59
2022/01/28 08:47:07;;;;;;;4.90;2.33;;;20.50;41.20;;;;;;5065082;28;20890;-59
2022/01/28 08:49:33;;;;;;;6.75;2.78;;;20.50;41.20;;;;;;5066980;28;20045;-59
2022/01/28 08:51:59;;;;;;;5.78;2.10;;;20.60;41.40;;;;;;5061659;28;20774;-59
2022/01/28 08:54:24;;;;;;;6.18;2.17;;;20.60;41.60;;;;;;5062752;28;20043;-59
2022/01/28 08:56:50;;;;;;;6.20;2.22;;;20.50;41.60;;;;;;5063526;28;20182;-58
2022/01/28 08:59:15;;;;;;;8.15;2.17;;;20.60;41.80;;;;;;5063495;28;20068;-58
2022/01/28 09:01:41;;;;;;;5.57;2.40;;;20.50;41.80;;;;;;5067246;28;20491;-59
2022/01/28 09:04:06;;;;;;;5.63;2.20;;;20.60;42.00;;;;;;5069509;28;20469;-59
2022/01/28 09:06:32;;;;;;;6.28;2.40;;;20.60;42.00;;;;;;5064390;28;20147;-59
2022/01/28 09:09:00;;;;;;;6.10;2.58;;;20.60;42.10;;;;;;5069145;28;20098;-59
2022/01/28 09:13:52;;;;;;;6.57;2.60;;;20.60;42.20;;;;;;5062783;28;20059;-60
2022/01/28 09:16:21;;;;;;;7.22;2.50;;;20.60;42.20;;;;;;5067784;28;20048;-59
2022/01/28 09:18:46;;;;;;;8.90;2.42;;;20.60;42.30;;;;;;5058872;28;20380;-59
2022/01/28 09:21:12;;;;;;;6.13;2.42;;;20.60;42.20;;;;;;5059317;28;20044;-60
2022/01/28 09:23:38;;;;;;;5.25;2.50;;;20.60;42.30;;;;;;5067509;28;20046;-58
2022/01/28 09:26:03;;;;;;;7.63;2.58;;;20.60;42.30;;;;;;5067565;28;20128;-60
2022/01/28 09:28:29;;;;;;;6.10;2.55;;;20.70;42.30;;;;;;5066348;28;20138;-60
2022/01/28 09:30:57;;;;;;;8.38;2.70;;;20.70;42.40;;;;;;5068061;28;20044;-60
2022/01/28 09:33:23;;;;;;;6.05;2.30;;;20.70;42.50;;;;;;5065505;28;20098;-59
2022/01/28 09:35:48;;;;;;;5.85;1.98;;;20.70;42.50;;;;;;5061927;28;20041;-59
2022/01/28 09:38:14;;;;;;;5.18;2.08;;;20.70;42.50;;;;;;5064780;28;20042;-61
2022/01/28 09:40:40;;;;;;;7.63;2.50;;;20.70;42.40;;;;;;5065868;28;20360;-60
2022/01/28 09:43:07;;;;;;;7.30;2.55;;;20.70;42.40;;;;;;5058948;28;20792;-59
2022/01/28 09:45:34;;;;;;;6.90;2.28;;;20.70;42.50;;;;;;5061342;28;20043;-59
2022/01/28 09:48:00;;;;;;;6.25;2.53;;;20.70;42.50;;;;;;5058915;28;20040;-59
2022/01/28 09:50:29;;;;;;;9.68;2.60;;;20.70;42.60;;;;;;5062913;28;20101;-60
2022/01/28 09:52:56;;;;;;;6.07;2.45;;;20.70;42.80;;;;;;5052225;28;20052;-60
2022/01/28 09:55:23;;;;;;;7.32;2.47;;;20.80;42.90;;;;;;5064231;28;20047;-59
2022/01/28 09:57:54;;;;;;;7.93;2.38;;;20.80;43.00;;;;;;5063348;28;20541;-59
2022/01/28 10:00:22;;;;;;;5.47;2.03;;;20.80;43.10;;;;;;5065880;28;20814;-60
2022/01/28 10:02:52;;;;;;;7.78;2.35;;;20.80;43.10;;;;;;5064942;28;20178;-59
2022/01/28 10:05:29;;;;;;;6.65;2.20;;;20.80;43.30;;;;;;5053070;28;20033;-59
2022/01/28 10:07:59;;;;;;;9.30;3.22;;;20.80;43.40;;;;;;5058855;28;20068;-59
2022/01/28 10:10:24;;;;;;;8.52;2.50;;;20.90;43.50;;;;;;5065148;28;20055;-60
2022/01/28 10:13:13;;;;;;;7.93;2.35;;;20.90;43.60;;;;;;5064309;28;20048;-59
2022/01/28 10:16:03;;;;;;;11.05;2.33;;;20.90;43.60;;;;;;5060178;28;20052;-59
2022/01/28 10:19:09;;;;;;;7.88;2.53;;;20.90;43.90;;;;;;5049491;28;20046;-60
2022/01/28 10:21:39;;;;;;;7.28;2.75;;;20.90;43.80;;;;;;5063852;28;20049;-58
2022/01/28 10:24:14;;;;;;;8.88;2.25;;;21.00;43.90;;;;;;5068331;28;20032;-58
2022/01/28 10:26:47;;;;;;;11.13;2.30;;;21.00;43.80;;;;;;5061935;28;20068;-59
2022/01/28 10:29:14;;;;;;;7.75;2.55;;;21.00;44.00;;;;;;5067666;28;20135;-60
2022/01/28 10:31:41;;;;;;;9.27;2.28;;;21.00;44.00;;;;;;5063665;28;20097;-59
2022/01/28 10:34:14;;;;;;;7.90;2.42;;;21.00;44.20;;;;;;5060305;28;20040;-59
2022/01/28 10:36:40;;;;;;;7.18;2.13;;;21.10;44.10;;;;;;5065226;28;20097;-59
2022/01/28 10:39:06;;;;;;;15.35;2.88;;;21.10;44.10;;;;;;5059879;28;20730;-57
2022/01/28 10:41:31;;;;;;;5.35;2.35;;;21.10;44.20;;;;;;5054026;28;20036;-59
2022/01/28 10:43:58;;;;;;;5.95;2.55;;;21.10;44.10;;;;;;5067109;28;20040;-59
2022/01/28 10:46:26;;;;;;;6.55;2.47;;;21.10;44.00;;;;;;5052536;28;20043;-58
2022/01/28 10:49:01;;;;;;;7.55;2.22;;;21.20;44.00;;;;;;5055111;28;20527;-58
2022/01/28 10:51:42;;;;;;;7.68;2.25;;;21.10;43.90;;;;;;5067949;28;20036;-59
2022/01/28 10:54:17;;;;;;;11.98;2.53;;;21.20;43.70;;;;;;5066359;28;20516;-59
2022/01/28 10:56:58;;;;;;;5.85;2.40;;;21.20;43.50;;;;;;5062126;28;20117;-59
2022/01/28 10:59:29;;;;;;;6.07;2.78;;;21.10;44.00;;;;;;5066402;28;20564;-59
2022/01/28 11:01:56;;;;;;;6.78;2.67;;;21.20;43.30;;;;;;5068057;28;20585;-59
2022/01/28 11:04:23;;;;;;;10.20;2.75;;;21.20;43.10;;;;;;5072120;28;20036;-59
2022/01/28 11:06:51;;;;;;;6.63;2.53;;;21.10;43.10;;;;;;5072018;28;20040;-61
2022/01/28 11:09:21;;;;;;;6.93;2.03;;;21.10;43.10;;;;;;5067309;28;20048;-59
2022/01/28 11:11:48;;;;;;;5.30;2.30;;;21.20;43.10;;;;;;5059729;28;20143;-57
2022/01/28 11:14:13;;;;;;;6.05;2.40;;;21.10;43.00;;;;;;5074516;28;20113;-59
2022/01/28 11:16:39;;;;;;;8.27;2.85;;;21.10;42.90;;;;;;5069708;28;20037;-58
2022/01/28 11:19:09;;;;;;;7.10;2.20;;;21.20;42.90;;;;;;5074254;28;20043;-58
2022/01/28 11:21:47;;;;;;;6.60;2.40;;;21.20;42.90;;;;;;5069874;28;20044;-59
2022/01/28 11:24:23;;;;;;;7.50;2.38;;;21.20;43.00;;;;;;5069888;28;20048;-59
2022/01/28 11:27:03;;;;;;;10.05;2.47;;;21.20;43.80;;;;;;5064309;28;20318;-59
2022/01/28 11:29:29;;;;;;;8.37;2.83;;;21.20;43.10;;;;;;5070046;28;20044;-59
2022/01/28 11:31:56;;;;;;;8.85;2.80;;;21.20;43.10;;;;;;5066336;28;20512;-59
2022/01/28 11:34:26;;;;;;;11.60;2.88;;;21.20;43.10;;;;;;5070013;28;20036;-59
2022/01/28 11:36:55;;;;;;;6.07;2.42;;;21.20;43.10;;;;;;5070780;28;20040;-59
2022/01/28 11:39:39;;;;;;;7.47;2.45;;;21.20;43.00;;;;;;5071128;28;20059;-60
2022/01/28 11:42:10;;;;;;;6.47;2.40;;;21.20;43.00;;;;;;5071390;28;20052;-58
2022/01/28 11:44:50;;;;;;;6.38;2.58;;;21.20;43.00;;;;;;5070465;28;20048;-59
2022/01/28 11:47:31;;;;;;;7.72;2.25;;;21.20;43.00;;;;;;5069810;28;20098;-59
2022/01/28 11:50:13;;;;;;;8.32;2.92;;;21.20;43.10;;;;;;5070872;28;20472;-60
2022/01/28 11:52:46;;;;;;;7.97;2.92;;;21.20;43.20;;;;;;5069315;28;20112;-60
2022/01/28 11:55:14;;;;;;;8.90;3.00;;;21.20;43.20;;;;;;5070959;28;20392;-60
2022/01/28 11:58:05;;;;;;;8.10;3.00;;;21.20;43.20;;;;;;5073899;28;20044;-60
2022/01/28 12:00:39;;;;;;;6.67;2.77;;;21.30;43.20;;;;;;5066488;28;20487;-59
2022/01/28 12:03:22;;;;;;;9.45;2.83;;;21.20;43.00;;;;;;5073192;28;20274;-60
2022/01/28 12:05:49;;;;;;;6.45;2.78;;;21.20;42.90;;;;;;5069412;28;20044;-59
2022/01/28 12:08:17;;;;;;;9.88;2.85;;;21.20;43.00;;;;;;5068734;28;20032;-60
2022/01/28 12:10:45;;;;;;;7.30;2.55;;;21.20;43.10;;;;;;5068438;28;20048;-60
2022/01/28 12:13:15;;;;;;;8.43;3.00;;;21.20;43.10;;;;;;5067964;28;20048;-59
2022/01/28 12:18:53;;;;;;;9.32;2.72;;;21.20;43.20;;;;;;5071232;28;20029;-60
2022/01/28 12:21:22;;;;;;;7.60;2.90;;;21.10;43.10;;;;;;5070504;28;20052;-60
2022/01/28 12:23:48;;;;;;;11.25;3.58;;;21.20;43.20;;;;;;5067676;28;20819;-59
2022/01/28 12:26:17;;;;;;;8.82;2.65;;;21.20;43.10;;;;;;5069440;28;20834;-59
2022/01/28 12:28:44;;;;;;;8.13;2.90;;;21.10;43.00;;;;;;5069221;28;20131;-59
2022/01/28 12:31:19;;;;;;;8.57;3.08;;;21.10;43.00;;;;;;5070438;28;20456;-60
2022/01/28 12:34:07;;;;;;;6.88;2.50;;;21.10;42.90;;;;;;5067768;28;20115;-60
2022/01/28 12:36:35;;;;;;;8.35;3.15;;;21.10;42.90;;;;;;5067729;28;20506;-59
2022/01/28 12:39:12;;;;;;;7.60;3.30;;;21.10;42.90;;;;;;5071871;28;20058;-59
2022/01/28 12:41:56;;;;;;;8.43;3.28;;;21.10;43.00;;;;;;5070281;28;20040;-59
2022/01/28 12:44:23;;;;;;;6.80;2.35;;;21.10;42.90;;;;;;5068899;28;20036;-59
2022/01/28 12:46:58;;;;;;;8.18;2.63;;;21.10;43.00;;;;;;5067701;28;20032;-59
2022/01/28 12:49:26;;;;;;;8.07;2.65;;;21.10;43.00;;;;;;5073254;28;20044;-59
2022/01/28 12:51:55;;;;;;;8.82;2.67;;;21.10;43.00;;;;;;5069390;28;20036;-60
2022/01/28 12:54:38;;;;;;;8.48;2.70;;;21.10;43.00;;;;;;5072041;28;20032;-59
2022/01/28 12:57:05;;;;;;;8.45;3.05;;;21.10;43.10;;;;;;5068141;28;20043;-60
2022/01/28 12:59:31;;;;;;;9.25;3.15;;;21.10;43.10;;;;;;5072227;28;20055;-60
2022/01/28 13:01:57;;;;;;;7.60;2.92;;;21.10;43.20;;;;;;5064918;28;20389;-60
2022/01/28 13:04:35;;;;;;;7.10;3.05;;;21.10;43.10;;;;;;5069719;28;20049;-58
2022/01/28 13:08:24;;;;;;;6.22;2.72;;;21.10;43.10;;;;;;5067398;28;20085;-59
2022/01/28 13:09:49;;;;;;;10.05;3.10;;;21.10;43.10;;;;;;5068867;28;20043;-58
2022/01/28 13:12:28;;;;;;;6.85;2.78;;;21.10;43.20;;;;;;5065942;28;20058;-59
2022/01/28 13:14:55;;;;;;;8.70;3.20;;;21.10;43.20;;;;;;5066557;28;20056;-60
2022/01/28 13:17:22;;;;;;;6.90;2.65;;;21.10;43.10;;;;;;5065038;28;20047;-59
2022/01/28 13:19:54;;;;;;;7.97;2.60;;;21.10;43.20;;;;;;5059978;28;20124;-60
2022/01/28 13:22:25;;;;;;;7.07;2.78;;;21.10;43.10;;;;;;5058361;28;20345;-60
2022/01/28 13:24:52;;;;;;;;;;;21.10;43.00;;;;;;5066944;28;20093;-60
2022/01/28 13:27:19;;;;;;;6.97;2.70;;;21.00;42.80;;;;;;5070971;28;19920;-59
2022/01/28 13:29:49;;;;;;;8.85;2.85;;;21.00;42.90;;;;;;5065237;28;20126;-58
2022/01/28 13:32:20;;;;;;;7.20;2.63;;;21.00;42.80;;;;;;5070754;28;20431;-59
2022/01/28 13:34:48;;;;;;;6.25;2.55;;;21.00;42.80;;;;;;5067379;28;20059;-59
2022/01/28 13:37:41;;;;;;;8.15;2.85;;;21.00;42.80;;;;;;5070187;28;20467;-58
2022/01/28 13:40:09;;;;;;;7.38;2.33;;;21.00;42.60;;;;;;5069658;28;20070;-59
2022/01/28 13:42:36;;;;;;;7.28;2.58;;;21.00;42.60;;;;;;5068647;28;20047;-60
2022/01/28 13:45:05;;;;;;;9.57;2.60;;;21.00;42.50;;;;;;5069858;28;20040;-60
2022/01/28 13:47:51;;;;;;;6.78;2.40;;;21.00;42.40;;;;;;5066786;28;20036;-60
2022/01/28 13:50:36;;;;;;;6.50;2.35;;;21.00;42.30;;;;;;5071791;28;20927;-59
2022/01/28 13:55:54;;;;;;;8.70;2.47;;;21.00;42.30;;;;;;5069509;28;20048;-59
2022/01/28 13:58:20;;;;;;;7.10;2.42;;;21.00;42.20;;;;;;5063137;28;20388;-59
2022/01/28 14:00:50;;;;;;;6.43;2.53;;;21.00;42.20;;;;;;5071676;28;20234;-60
2022/01/28 14:03:27;;;;;;;6.93;2.42;;;21.00;42.10;;;;;;5065430;28;20048;-59
2022/01/28 14:05:59;;;;;;;7.40;2.10;;;21.00;42.00;;;;;;5068554;28;20041;-59
2022/01/28 14:08:38;;;;;;;7.30;2.10;;;21.00;42.00;;;;;;5067394;28;20368;-60
2022/01/28 14:11:23;;;;;;;5.80;2.30;;;21.00;41.80;;;;;;5067344;28;20041;-59
2022/01/28 14:14:09;;;;;;;6.22;2.83;;;21.00;41.80;;;;;;5070917;28;20406;-59